createdAt,value
2019-02-28T18:18:56.855Z,7.38
2019-02-28T18:24:30.841Z,7.28
2019-02-28T18:30:23.259Z,7.09
2019-02-28T18:35:32.517Z,6.90
2019-02-28T18:40:37.503Z,6.80
2019-02-28T18:45:45.377Z,6.57
2019-02-28T18:50:51.836Z,6.53
2019-02-28T18:55:57.636Z,6.41
2019-02-28T19:01:03.616Z,6.25
2019-02-28T19:06:07.994Z,6.12
2019-02-28T19:11:12.049Z,5.96
2019-02-28T19:16:16.191Z,5.83
2019-02-28T19:21:20.429Z,5.75
2019-02-28T19:26:24.552Z,5.65
2019-02-28T19:31:28.589Z,5.63
2019-02-28T19:36:32.619Z,5.42
2019-02-28T19:41:36.741Z,5.19
2019-02-28T19:46:43.406Z,5.04
2019-02-28T19:51:51.214Z,4.86
2019-02-28T19:56:57.213Z,4.89
2019-02-28T20:02:05.725Z,4.77
2019-02-28T20:07:11.733Z,4.63
2019-02-28T20:12:15.956Z,4.75
2019-02-28T20:17:20.312Z,5.02
2019-02-28T20:22:31.949Z,5.35
2019-02-28T20:28:00.721Z,5.50
2019-02-28T20:33:05.045Z,5.64
2019-02-28T20:38:12.053Z,5.72
2019-02-28T20:43:16.085Z,5.74
2019-02-28T20:48:31.194Z,5.78
2019-02-28T20:53:38.780Z,5.84
2019-02-28T20:58:45.608Z,5.86
2019-02-28T21:03:51.863Z,5.91
2019-02-28T21:09:00.903Z,5.90
2019-02-28T21:14:10.587Z,5.95
2019-02-28T21:19:15.337Z,5.94
2019-02-28T21:24:19.768Z,5.97
2019-02-28T21:29:24.599Z,5.90
2019-02-28T21:34:28.877Z,5.86
2019-02-28T21:39:33.181Z,5.85
2019-02-28T21:44:37.493Z,5.86
2019-02-28T21:49:41.541Z,5.82
2019-02-28T21:54:45.857Z,5.79
2019-02-28T21:59:49.947Z,5.87
2019-02-28T22:04:54.298Z,5.86
2019-02-28T22:09:58.353Z,5.85
2019-02-28T22:15:02.674Z,5.83
2019-02-28T22:20:10.322Z,5.77
2019-02-28T22:25:16.423Z,5.70
2019-02-28T22:30:20.829Z,5.67
2019-02-28T22:35:24.958Z,5.66
2019-02-28T22:40:30.694Z,5.65
2019-02-28T22:45:36.998Z,5.56
2019-02-28T22:50:41.226Z,5.57
2019-02-28T22:55:45.618Z,5.66
2019-02-28T23:00:53.459Z,5.68
2019-02-28T23:05:57.492Z,5.70
2019-02-28T23:11:01.634Z,5.70
2019-02-28T23:16:05.731Z,5.68
2019-02-28T23:21:09.753Z,5.68
2019-02-28T23:26:18.715Z,5.69
2019-02-28T23:32:00.028Z,5.63
2019-02-28T23:37:04.181Z,5.64
2019-02-28T23:42:08.503Z,5.63
2019-02-28T23:47:12.529Z,5.59
2019-02-28T23:52:16.625Z,5.55
2019-02-28T23:57:20.976Z,5.53
